sensor_id;sensor_type;location;lat;lon;timestamp;P1;durP1;ratioP1;P2;durP2;ratioP2
59434;SDS011;45241;49.768;8.636;2023-02-18T00:01:59;7.38;;;5.32;;
59434;SDS011;45241;49.768;8.636;2023-02-18T00:04:24;7.55;;;6.43;;
59434;SDS011;45241;49.768;8.636;2023-02-18T00:06:49;6.95;;;5.90;;
59434;SDS011;45241;49.768;8.636;2023-02-18T00:09:15;8.65;;;5.97;;
59434;SDS011;45241;49.768;8.636;2023-02-18T00:11:40;9.27;;;6.15;;
59434;SDS011;45241;49.768;8.636;2023-02-18T00:14:10;8.52;;;6.68;;
59434;SDS011;45241;49.768;8.636;2023-02-18T00:16:37;8.43;;;6.53;;
59434;SDS011;45241;49.768;8.636;2023-02-18T00:19:05;9.05;;;7.47;;
59434;SDS011;45241;49.768;8.636;2023-02-18T00:21:33;8.55;;;6.57;;
59434;SDS011;45241;49.768;8.636;2023-02-18T00:23:59;8.50;;;6.57;;
59434;SDS011;45241;49.768;8.636;2023-02-18T00:26:25;9.25;;;7.35;;
59434;SDS011;45241;49.768;8.636;2023-02-18T00:28:51;9.98;;;8.18;;
59434;SDS011;45241;49.768;8.636;2023-02-18T00:31:19;9.00;;;7.65;;
59434;SDS011;45241;49.768;8.636;2023-02-18T00:33:46;12.88;;;9.38;;
59434;SDS011;45241;49.768;8.636;2023-02-18T00:36:12;10.77;;;8.48;;
59434;SDS011;45241;49.768;8.636;2023-02-18T00:38:42;9.65;;;7.57;;
59434;SDS011;45241;49.768;8.636;2023-02-18T00:41:09;13.63;;;8.73;;
59434;SDS011;45241;49.768;8.636;2023-02-18T00:43:35;12.73;;;8.40;;
59434;SDS011;45241;49.768;8.636;2023-02-18T00:46:00;12.40;;;8.82;;
59434;SDS011;45241;49.768;8.636;2023-02-18T00:48:26;13.52;;;9.80;;
59434;SDS011;45241;49.768;8.636;2023-02-18T00:50:51;12.45;;;9.38;;
59434;SDS011;45241;49.768;8.636;2023-02-18T00:53:16;13.43;;;9.07;;
59434;SDS011;45241;49.768;8.636;2023-02-18T00:55:42;10.80;;;8.70;;
59434;SDS011;45241;49.768;8.636;2023-02-18T00:58:09;12.43;;;8.77;;
59434;SDS011;45241;49.768;8.636;2023-02-18T01:00:35;14.77;;;9.70;;
59434;SDS011;45241;49.768;8.636;2023-02-18T01:03:01;11.63;;;8.88;;
59434;SDS011;45241;49.768;8.636;2023-02-18T01:05:27;13.52;;;9.43;;
59434;SDS011;45241;49.768;8.636;2023-02-18T01:07:52;11.85;;;8.68;;
59434;SDS011;45241;49.768;8.636;2023-02-18T01:10:18;13.63;;;9.18;;
59434;SDS011;45241;49.768;8.636;2023-02-18T01:12:43;14.20;;;9.63;;
59434;SDS011;45241;49.768;8.636;2023-02-18T01:15:10;13.07;;;9.02;;
59434;SDS011;45241;49.768;8.636;2023-02-18T01:17:38;11.85;;;8.57;;
59434;SDS011;45241;49.768;8.636;2023-02-18T01:20:04;13.48;;;8.77;;
59434;SDS011;45241;49.768;8.636;2023-02-18T01:22:29;14.20;;;9.35;;
59434;SDS011;45241;49.768;8.636;2023-02-18T01:24:55;11.65;;;8.52;;
59434;SDS011;45241;49.768;8.636;2023-02-18T01:27:20;13.15;;;9.25;;
59434;SDS011;45241;49.768;8.636;2023-02-18T01:29:45;10.75;;;8.20;;
59434;SDS011;45241;49.768;8.636;2023-02-18T01:32:11;11.73;;;8.32;;
59434;SDS011;45241;49.768;8.636;2023-02-18T01:34:36;14.25;;;8.27;;
59434;SDS011;45241;49.768;8.636;2023-02-18T01:37:01;11.43;;;8.10;;
59434;SDS011;45241;49.768;8.636;2023-02-18T01:39:27;10.50;;;7.43;;
59434;SDS011;45241;49.768;8.636;2023-02-18T01:41:52;10.55;;;7.70;;
59434;SDS011;45241;49.768;8.636;2023-02-18T01:44:19;11.77;;;8.02;;
59434;SDS011;45241;49.768;8.636;2023-02-18T01:46:47;10.43;;;7.63;;
59434;SDS011;45241;49.768;8.636;2023-02-18T01:49:15;9.80;;;7.35;;
59434;SDS011;45241;49.768;8.636;2023-02-18T01:51:52;11.48;;;7.68;;
59434;SDS011;45241;49.768;8.636;2023-02-18T01:54:23;11.02;;;7.32;;
59434;SDS011;45241;49.768;8.636;2023-02-18T01:57:01;11.02;;;7.32;;
59434;SDS011;45241;49.768;8.636;2023-02-18T01:59:32;10.82;;;7.97;;
59434;SDS011;45241;49.768;8.636;2023-02-18T02:02:01;14.23;;;8.13;;
59434;SDS011;45241;49.768;8.636;2023-02-18T02:04:27;10.35;;;7.75;;
59434;SDS011;45241;49.768;8.636;2023-02-18T02:06:53;15.48;;;8.30;;
59434;SDS011;45241;49.768;8.636;2023-02-18T02:09:18;10.93;;;8.27;;
59434;SDS011;45241;49.768;8.636;2023-02-18T02:12:30;11.10;;;7.60;;
59434;SDS011;45241;49.768;8.636;2023-02-18T02:15:00;12.10;;;8.30;;
59434;SDS011;45241;49.768;8.636;2023-02-18T02:17:36;11.13;;;8.07;;
59434;SDS011;45241;49.768;8.636;2023-02-18T02:20:16;12.45;;;8.63;;
59434;SDS011;45241;49.768;8.636;2023-02-18T02:30:39;13.15;;;10.00;;
59434;SDS011;45241;49.768;8.636;2023-02-18T02:33:17;13.15;;;9.07;;
59434;SDS011;45241;49.768;8.636;2023-02-18T02:36:11;14.25;;;9.18;;
59434;SDS011;45241;49.768;8.636;2023-02-18T02:38:46;13.75;;;9.60;;
59434;SDS011;45241;49.768;8.636;2023-02-18T02:44:18;12.70;;;9.00;;
59434;SDS011;45241;49.768;8.636;2023-02-18T02:46:47;13.13;;;8.73;;
59434;SDS011;45241;49.768;8.636;2023-02-18T02:52:43;11.00;;;8.45;;
59434;SDS011;45241;49.768;8.636;2023-02-18T02:54:51;12.25;;;8.43;;
59434;SDS011;45241;49.768;8.636;2023-02-18T02:59:47;10.90;;;6.97;;
59434;SDS011;45241;49.768;8.636;2023-02-18T03:07:52;11.43;;;7.10;;
59434;SDS011;45241;49.768;8.636;2023-02-18T03:13:17;10.75;;;7.10;;
59434;SDS011;45241;49.768;8.636;2023-02-18T03:15:49;9.65;;;7.45;;
59434;SDS011;45241;49.768;8.636;2023-02-18T03:18:25;10.18;;;7.53;;
59434;SDS011;45241;49.768;8.636;2023-02-18T03:23:41;12.57;;;7.38;;
59434;SDS011;45241;49.768;8.636;2023-02-18T03:26:13;11.63;;;8.32;;
59434;SDS011;45241;49.768;8.636;2023-02-18T03:28:42;12.48;;;7.75;;
59434;SDS011;45241;49.768;8.636;2023-02-18T03:31:14;11.13;;;8.30;;
59434;SDS011;45241;49.768;8.636;2023-02-18T03:33:47;11.73;;;7.97;;
59434;SDS011;45241;49.768;8.636;2023-02-18T03:36:17;11.50;;;8.05;;
59434;SDS011;45241;49.768;8.636;2023-02-18T03:38:47;9.85;;;7.63;;
59434;SDS011;45241;49.768;8.636;2023-02-18T03:41:18;10.65;;;7.05;;
59434;SDS011;45241;49.768;8.636;2023-02-18T03:43:48;9.32;;;7.20;;
59434;SDS011;45241;49.768;8.636;2023-02-18T03:46:14;11.48;;;8.05;;
59434;SDS011;45241;49.768;8.636;2023-02-18T03:48:40;9.68;;;6.50;;
59434;SDS011;45241;49.768;8.636;2023-02-18T03:51:05;9.20;;;6.55;;
59434;SDS011;45241;49.768;8.636;2023-02-18T03:53:30;10.52;;;7.28;;
59434;SDS011;45241;49.768;8.636;2023-02-18T03:55:56;9.77;;;7.63;;
59434;SDS011;45241;49.768;8.636;2023-02-18T03:58:21;9.93;;;6.80;;
59434;SDS011;45241;49.768;8.636;2023-02-18T04:00:46;11.85;;;6.82;;
59434;SDS011;45241;49.768;8.636;2023-02-18T04:03:12;9.15;;;6.65;;
59434;SDS011;45241;49.768;8.636;2023-02-18T04:05:37;11.35;;;7.40;;
59434;SDS011;45241;49.768;8.636;2023-02-18T04:08:02;11.13;;;6.95;;
59434;SDS011;45241;49.768;8.636;2023-02-18T04:10:27;11.68;;;7.18;;
59434;SDS011;45241;49.768;8.636;2023-02-18T04:12:53;12.07;;;7.22;;
59434;SDS011;45241;49.768;8.636;2023-02-18T04:15:18;11.02;;;6.70;;
59434;SDS011;45241;49.768;8.636;2023-02-18T04:17:43;9.27;;;6.25;;
59434;SDS011;45241;49.768;8.636;2023-02-18T04:20:09;8.60;;;6.35;;
59434;SDS011;45241;49.768;8.636;2023-02-18T04:22:34;10.85;;;6.93;;
59434;SDS011;45241;49.768;8.636;2023-02-18T04:25:00;9.75;;;6.40;;
59434;SDS011;45241;49.768;8.636;2023-02-18T04:27:25;8.82;;;6.28;;
59434;SDS011;45241;49.768;8.636;2023-02-18T04:29:51;8.23;;;5.93;;
59434;SDS011;45241;49.768;8.636;2023-02-18T04:32:16;9.75;;;5.80;;
59434;SDS011;45241;49.768;8.636;2023-02-18T04:34:41;10.73;;;6.10;;
59434;SDS011;45241;49.768;8.636;2023-02-18T04:37:07;8.55;;;5.68;;
59434;SDS011;45241;49.768;8.636;2023-02-18T04:39:32;7.93;;;5.20;;
59434;SDS011;45241;49.768;8.636;2023-02-18T04:41:57;8.02;;;5.50;;
59434;SDS011;45241;49.768;8.636;2023-02-18T04:44:22;8.02;;;5.07;;
59434;SDS011;45241;49.768;8.636;2023-02-18T04:46:48;7.40;;;4.93;;
59434;SDS011;45241;49.768;8.636;2023-02-18T04:49:13;10.30;;;4.78;;
59434;SDS011;45241;49.768;8.636;2023-02-18T04:51:38;8.40;;;5.20;;
59434;SDS011;45241;49.768;8.636;2023-02-18T04:54:04;6.85;;;5.20;;
59434;SDS011;45241;49.768;8.636;2023-02-18T04:56:29;6.78;;;5.18;;
59434;SDS011;45241;49.768;8.636;2023-02-18T04:58:54;7.85;;;5.28;;
59434;SDS011;45241;49.768;8.636;2023-02-18T05:01:20;9.63;;;6.03;;
59434;SDS011;45241;49.768;8.636;2023-02-18T05:03:45;7.45;;;6.00;;
59434;SDS011;45241;49.768;8.636;2023-02-18T05:06:10;11.18;;;6.70;;
59434;SDS011;45241;49.768;8.636;2023-02-18T05:08:36;8.50;;;6.60;;
59434;SDS011;45241;49.768;8.636;2023-02-18T05:11:04;8.32;;;6.70;;
59434;SDS011;45241;49.768;8.636;2023-02-18T05:13:30;10.23;;;7.32;;
59434;SDS011;45241;49.768;8.636;2023-02-18T05:15:55;11.30;;;8.35;;
59434;SDS011;45241;49.768;8.636;2023-02-18T05:18:21;10.48;;;8.10;;
59434;SDS011;45241;49.768;8.636;2023-02-18T05:20:46;10.70;;;8.00;;
59434;SDS011;45241;49.768;8.636;2023-02-18T05:23:11;12.15;;;8.52;;
59434;SDS011;45241;49.768;8.636;2023-02-18T05:25:37;11.15;;;8.43;;
59434;SDS011;45241;49.768;8.636;2023-02-18T05:28:02;11.68;;;8.10;;
59434;SDS011;45241;49.768;8.636;2023-02-18T05:30:27;10.65;;;7.38;;
59434;SDS011;45241;49.768;8.636;2023-02-18T05:32:53;9.85;;;7.38;;
59434;SDS011;45241;49.768;8.636;2023-02-18T05:35:18;9.25;;;8.07;;
59434;SDS011;45241;49.768;8.636;2023-02-18T05:37:43;8.93;;;7.32;;
59434;SDS011;45241;49.768;8.636;2023-02-18T05:40:09;12.05;;;7.53;;
59434;SDS011;45241;49.768;8.636;2023-02-18T05:42:35;9.43;;;7.35;;
59434;SDS011;45241;49.768;8.636;2023-02-18T05:45:01;10.75;;;7.53;;
59434;SDS011;45241;49.768;8.636;2023-02-18T05:47:26;11.18;;;7.43;;
59434;SDS011;45241;49.768;8.636;2023-02-18T05:49:51;9.95;;;6.90;;
59434;SDS011;45241;49.768;8.636;2023-02-18T05:52:16;8.77;;;6.80;;
59434;SDS011;45241;49.768;8.636;2023-02-18T05:54:42;7.97;;;6.45;;
59434;SDS011;45241;49.768;8.636;2023-02-18T05:57:09;8.90;;;6.32;;
59434;SDS011;45241;49.768;8.636;2023-02-18T05:59:35;7.35;;;5.80;;
59434;SDS011;45241;49.768;8.636;2023-02-18T06:02:00;6.85;;;5.20;;
59434;SDS011;45241;49.768;8.636;2023-02-18T06:04:25;8.70;;;5.60;;
59434;SDS011;45241;49.768;8.636;2023-02-18T06:06:51;7.63;;;5.90;;
59434;SDS011;45241;49.768;8.636;2023-02-18T06:09:16;7.40;;;5.63;;
59434;SDS011;45241;49.768;8.636;2023-02-18T06:11:42;8.18;;;6.43;;
59434;SDS011;45241;49.768;8.636;2023-02-18T06:14:07;9.85;;;5.35;;
59434;SDS011;45241;49.768;8.636;2023-02-18T06:16:33;7.85;;;5.57;;
59434;SDS011;45241;49.768;8.636;2023-02-18T06:18:58;9.25;;;6.50;;
59434;SDS011;45241;49.768;8.636;2023-02-18T06:21:24;8.07;;;6.30;;
59434;SDS011;45241;49.768;8.636;2023-02-18T06:23:49;9.13;;;6.38;;
59434;SDS011;45241;49.768;8.636;2023-02-18T06:26:15;8.85;;;6.70;;
59434;SDS011;45241;49.768;8.636;2023-02-18T06:28:40;9.68;;;6.65;;
59434;SDS011;45241;49.768;8.636;2023-02-18T06:31:05;8.48;;;5.97;;
59434;SDS011;45241;49.768;8.636;2023-02-18T06:33:31;8.73;;;6.35;;
59434;SDS011;45241;49.768;8.636;2023-02-18T06:38:27;7.43;;;5.75;;
59434;SDS011;45241;49.768;8.636;2023-02-18T06:40:52;7.13;;;5.65;;
59434;SDS011;45241;49.768;8.636;2023-02-18T06:43:18;7.53;;;5.60;;
59434;SDS011;45241;49.768;8.636;2023-02-18T06:45:44;8.13;;;5.43;;
59434;SDS011;45241;49.768;8.636;2023-02-18T06:48:10;7.20;;;5.63;;
59434;SDS011;45241;49.768;8.636;2023-02-18T06:50:35;7.30;;;5.82;;
59434;SDS011;45241;49.768;8.636;2023-02-18T06:53:01;8.15;;;6.18;;
59434;SDS011;45241;49.768;8.636;2023-02-18T06:55:26;7.85;;;6.32;;
59434;SDS011;45241;49.768;8.636;2023-02-18T06:57:52;7.82;;;6.38;;
59434;SDS011;45241;49.768;8.636;2023-02-18T07:00:17;7.82;;;6.47;;
59434;SDS011;45241;49.768;8.636;2023-02-18T07:02:42;8.38;;;6.40;;
59434;SDS011;45241;49.768;8.636;2023-02-18T07:05:08;9.13;;;6.40;;
59434;SDS011;45241;49.768;8.636;2023-02-18T07:07:33;9.30;;;6.97;;
59434;SDS011;45241;49.768;8.636;2023-02-18T07:09:59;10.32;;;6.93;;
59434;SDS011;45241;49.768;8.636;2023-02-18T07:12:24;7.93;;;6.32;;
59434;SDS011;45241;49.768;8.636;2023-02-18T07:14:50;7.88;;;6.47;;
59434;SDS011;45241;49.768;8.636;2023-02-18T07:17:15;11.52;;;7.43;;
59434;SDS011;45241;49.768;8.636;2023-02-18T07:19:41;9.00;;;6.53;;
59434;SDS011;45241;49.768;8.636;2023-02-18T07:22:06;9.10;;;6.68;;
59434;SDS011;45241;49.768;8.636;2023-02-18T07:24:32;10.50;;;7.25;;
59434;SDS011;45241;49.768;8.636;2023-02-18T07:26:57;9.75;;;7.13;;
59434;SDS011;45241;49.768;8.636;2023-02-18T07:29:22;8.88;;;7.45;;
59434;SDS011;45241;49.768;8.636;2023-02-18T07:31:47;10.18;;;8.07;;
59434;SDS011;45241;49.768;8.636;2023-02-18T07:34:13;11.15;;;8.45;;
59434;SDS011;45241;49.768;8.636;2023-02-18T07:36:38;12.10;;;8.73;;
59434;SDS011;45241;49.768;8.636;2023-02-18T07:39:03;13.45;;;9.70;;
59434;SDS011;45241;49.768;8.636;2023-02-18T07:41:29;11.93;;;8.80;;
59434;SDS011;45241;49.768;8.636;2023-02-18T07:43:54;12.02;;;8.82;;
59434;SDS011;45241;49.768;8.636;2023-02-18T07:46:19;13.65;;;8.43;;
59434;SDS011;45241;49.768;8.636;2023-02-18T07:48:45;12.85;;;8.27;;
59434;SDS011;45241;49.768;8.636;2023-02-18T07:51:10;12.02;;;8.23;;
59434;SDS011;45241;49.768;8.636;2023-02-18T07:53:37;14.30;;;8.13;;
59434;SDS011;45241;49.768;8.636;2023-02-18T07:56:02;13.73;;;8.65;;
59434;SDS011;45241;49.768;8.636;2023-02-18T07:58:29;12.80;;;7.93;;
59434;SDS011;45241;49.768;8.636;2023-02-18T08:00:56;12.38;;;7.85;;
59434;SDS011;45241;49.768;8.636;2023-02-18T08:03:23;13.98;;;8.65;;
59434;SDS011;45241;49.768;8.636;2023-02-18T08:05:50;10.98;;;7.20;;
59434;SDS011;45241;49.768;8.636;2023-02-18T08:08:18;11.73;;;8.25;;
59434;SDS011;45241;49.768;8.636;2023-02-18T08:10:46;11.50;;;8.18;;
59434;SDS011;45241;49.768;8.636;2023-02-18T08:13:12;12.73;;;8.15;;
59434;SDS011;45241;49.768;8.636;2023-02-18T08:15:37;10.63;;;7.63;;
59434;SDS011;45241;49.768;8.636;2023-02-18T08:18:04;12.05;;;7.25;;
59434;SDS011;45241;49.768;8.636;2023-02-18T08:20:30;10.88;;;7.68;;
59434;SDS011;45241;49.768;8.636;2023-02-18T08:22:56;9.75;;;6.97;;
59434;SDS011;45241;49.768;8.636;2023-02-18T08:25:21;11.55;;;7.60;;
59434;SDS011;45241;49.768;8.636;2023-02-18T08:27:46;10.98;;;7.93;;
59434;SDS011;45241;49.768;8.636;2023-02-18T08:30:12;9.90;;;6.72;;
59434;SDS011;45241;49.768;8.636;2023-02-18T08:32:37;9.57;;;7.50;;
59434;SDS011;45241;49.768;8.636;2023-02-18T08:35:03;10.70;;;7.10;;
59434;SDS011;45241;49.768;8.636;2023-02-18T08:37:29;9.57;;;6.57;;
59434;SDS011;45241;49.768;8.636;2023-02-18T08:39:54;9.30;;;6.75;;
59434;SDS011;45241;49.768;8.636;2023-02-18T08:42:20;9.48;;;6.38;;
59434;SDS011;45241;49.768;8.636;2023-02-18T08:44:45;10.70;;;6.53;;
59434;SDS011;45241;49.768;8.636;2023-02-18T08:47:11;8.93;;;6.18;;
59434;SDS011;45241;49.768;8.636;2023-02-18T08:49:36;9.85;;;6.15;;
59434;SDS011;45241;49.768;8.636;2023-02-18T08:52:02;8.43;;;5.80;;
59434;SDS011;45241;49.768;8.636;2023-02-18T08:54:28;9.38;;;6.90;;
59434;SDS011;45241;49.768;8.636;2023-02-18T08:56:54;8.65;;;5.93;;
59434;SDS011;45241;49.768;8.636;2023-02-18T08:59:21;6.95;;;5.18;;
59434;SDS011;45241;49.768;8.636;2023-02-18T09:01:50;8.75;;;5.40;;
59434;SDS011;45241;49.768;8.636;2023-02-18T09:04:16;7.35;;;5.35;;
59434;SDS011;45241;49.768;8.636;2023-02-18T09:06:41;7.45;;;5.07;;
59434;SDS011;45241;49.768;8.636;2023-02-18T09:09:07;7.50;;;5.60;;
59434;SDS011;45241;49.768;8.636;2023-02-18T09:11:32;8.13;;;5.50;;
59434;SDS011;45241;49.768;8.636;2023-02-18T09:13:58;7.20;;;5.15;;
59434;SDS011;45241;49.768;8.636;2023-02-18T09:16:23;7.32;;;5.57;;
59434;SDS011;45241;49.768;8.636;2023-02-18T09:18:49;8.07;;;4.90;;
59434;SDS011;45241;49.768;8.636;2023-02-18T09:21:14;6.70;;;4.43;;
59434;SDS011;45241;49.768;8.636;2023-02-18T09:23:42;9.88;;;5.28;;
59434;SDS011;45241;49.768;8.636;2023-02-18T09:26:09;7.40;;;4.85;;
59434;SDS011;45241;49.768;8.636;2023-02-18T09:28:38;7.32;;;4.82;;
59434;SDS011;45241;49.768;8.636;2023-02-18T09:31:09;7.38;;;4.97;;
59434;SDS011;45241;49.768;8.636;2023-02-18T09:33:38;7.93;;;5.15;;
59434;SDS011;45241;49.768;8.636;2023-02-18T09:36:05;8.27;;;5.32;;
59434;SDS011;45241;49.768;8.636;2023-02-18T09:38:31;8.43;;;5.38;;
59434;SDS011;45241;49.768;8.636;2023-02-18T09:40:56;9.27;;;4.82;;
59434;SDS011;45241;49.768;8.636;2023-02-18T09:43:28;7.25;;;5.45;;
59434;SDS011;45241;49.768;8.636;2023-02-18T09:45:57;6.82;;;4.82;;
59434;SDS011;45241;49.768;8.636;2023-02-18T09:48:25;6.93;;;5.13;;
59434;SDS011;45241;49.768;8.636;2023-02-18T09:50:53;7.38;;;5.28;;
59434;SDS011;45241;49.768;8.636;2023-02-18T09:53:19;9.95;;;5.00;;
59434;SDS011;45241;49.768;8.636;2023-02-18T09:55:46;6.78;;;5.40;;
59434;SDS011;45241;49.768;8.636;2023-02-18T09:58:16;6.07;;;4.80;;
59434;SDS011;45241;49.768;8.636;2023-02-18T10:00:46;7.05;;;5.22;;
59434;SDS011;45241;49.768;8.636;2023-02-18T10:03:16;7.20;;;5.15;;
59434;SDS011;45241;49.768;8.636;2023-02-18T10:08:50;5.75;;;4.50;;
59434;SDS011;45241;49.768;8.636;2023-02-18T10:13:56;6.30;;;4.70;;
59434;SDS011;45241;49.768;8.636;2023-02-18T10:16:28;6.20;;;4.50;;
59434;SDS011;45241;49.768;8.636;2023-02-18T10:18:56;6.97;;;4.70;;
59434;SDS011;45241;49.768;8.636;2023-02-18T10:21:24;5.97;;;4.20;;
59434;SDS011;45241;49.768;8.636;2023-02-18T10:24:03;5.93;;;4.53;;
59434;SDS011;45241;49.768;8.636;2023-02-18T10:26:33;6.30;;;4.30;;
59434;SDS011;45241;49.768;8.636;2023-02-18T10:29:01;6.03;;;3.78;;
59434;SDS011;45241;49.768;8.636;2023-02-18T10:31:30;7.40;;;3.92;;
59434;SDS011;45241;49.768;8.636;2023-02-18T10:36:45;5.43;;;3.42;;
59434;SDS011;45241;49.768;8.636;2023-02-18T10:39:32;4.78;;;3.50;;
59434;SDS011;45241;49.768;8.636;2023-02-18T10:44:43;4.55;;;3.33;;
59434;SDS011;45241;49.768;8.636;2023-02-18T10:47:36;5.13;;;3.17;;
59434;SDS011;45241;49.768;8.636;2023-02-18T10:50:26;4.63;;;3.55;;
59434;SDS011;45241;49.768;8.636;2023-02-18T10:52:55;4.47;;;3.05;;
59434;SDS011;45241;49.768;8.636;2023-02-18T10:55:36;3.92;;;3.10;;
59434;SDS011;45241;49.768;8.636;2023-02-18T10:58:21;4.05;;;2.80;;
59434;SDS011;45241;49.768;8.636;2023-02-18T11:00:49;4.13;;;3.13;;
59434;SDS011;45241;49.768;8.636;2023-02-18T11:03:17;4.07;;;3.30;;
59434;SDS011;45241;49.768;8.636;2023-02-18T11:05:45;4.47;;;3.10;;
59434;SDS011;45241;49.768;8.636;2023-02-18T11:08:17;4.40;;;3.05;;
59434;SDS011;45241;49.768;8.636;2023-02-18T11:10:46;5.20;;;2.92;;
59434;SDS011;45241;49.768;8.636;2023-02-18T11:13:14;4.43;;;2.70;;
59434;SDS011;45241;49.768;8.636;2023-02-18T11:15:52;3.83;;;2.60;;
59434;SDS011;45241;49.768;8.636;2023-02-18T11:20:59;3.53;;;2.45;;
59434;SDS011;45241;49.768;8.636;2023-02-18T11:23:26;2.92;;;2.33;;
59434;SDS011;45241;49.768;8.636;2023-02-18T11:25:53;5.20;;;2.50;;
59434;SDS011;45241;49.768;8.636;2023-02-18T11:28:28;3.40;;;2.20;;
59434;SDS011;45241;49.768;8.636;2023-02-18T11:30:55;3.38;;;1.70;;
59434;SDS011;45241;49.768;8.636;2023-02-18T11:33:34;2.35;;;1.58;;
59434;SDS011;45241;49.768;8.636;2023-02-18T11:36:04;2.08;;;1.33;;
59434;SDS011;45241;49.768;8.636;2023-02-18T11:38:51;2.45;;;1.50;;
59434;SDS011;45241;49.768;8.636;2023-02-18T11:44:34;1.75;;;1.20;;
59434;SDS011;45241;49.768;8.636;2023-02-18T11:47:22;3.60;;;1.35;;
59434;SDS011;45241;49.768;8.636;2023-02-18T11:50:00;3.08;;;1.10;;
59434;SDS011;45241;49.768;8.636;2023-02-18T11:52:26;2.10;;;1.30;;
59434;SDS011;45241;49.768;8.636;2023-02-18T11:55:07;2.47;;;1.20;;
59434;SDS011;45241;49.768;8.636;2023-02-18T11:57:41;2.08;;;1.10;;
59434;SDS011;45241;49.768;8.636;2023-02-18T12:00:54;1.45;;;1.20;;
59434;SDS011;45241;49.768;8.636;2023-02-18T12:03:13;2.03;;;1.10;;
59434;SDS011;45241;49.768;8.636;2023-02-18T12:05:47;1.20;;;1.10;;
59434;SDS011;45241;49.768;8.636;2023-02-18T12:08:17;2.28;;;1.15;;
59434;SDS011;45241;49.768;8.636;2023-02-18T12:10:51;2.00;;;1.30;;
59434;SDS011;45241;49.768;8.636;2023-02-18T12:13:25;2.63;;;1.30;;
59434;SDS011;45241;49.768;8.636;2023-02-18T12:16:16;1.50;;;1.30;;
59434;SDS011;45241;49.768;8.636;2023-02-18T12:19:09;2.40;;;1.20;;
59434;SDS011;45241;49.768;8.636;2023-02-18T12:27:17;5.47;;;1.33;;
59434;SDS011;45241;49.768;8.636;2023-02-18T12:38:28;1.80;;;1.00;;
59434;SDS011;45241;49.768;8.636;2023-02-18T12:46:40;3.72;;;1.35;;
59434;SDS011;45241;49.768;8.636;2023-02-18T12:57:47;3.72;;;1.73;;
59434;SDS011;45241;49.768;8.636;2023-02-18T13:03:38;4.47;;;1.75;;
59434;SDS011;45241;49.768;8.636;2023-02-18T13:06:19;3.00;;;1.55;;
59434;SDS011;45241;49.768;8.636;2023-02-18T13:14:13;3.97;;;2.50;;
59434;SDS011;45241;49.768;8.636;2023-02-18T13:16:44;3.42;;;2.15;;
59434;SDS011;45241;49.768;8.636;2023-02-18T13:19:29;4.22;;;2.22;;
59434;SDS011;45241;49.768;8.636;2023-02-18T13:22:03;2.73;;;2.10;;
59434;SDS011;45241;49.768;8.636;2023-02-18T13:24:37;4.20;;;2.60;;
59434;SDS011;45241;49.768;8.636;2023-02-18T13:27:16;3.95;;;2.42;;
59434;SDS011;45241;49.768;8.636;2023-02-18T13:32:38;2.75;;;2.05;;
59434;SDS011;45241;49.768;8.636;2023-02-18T13:40:55;2.40;;;1.80;;
59434;SDS011;45241;49.768;8.636;2023-02-18T13:46:04;3.15;;;1.73;;
59434;SDS011;45241;49.768;8.636;2023-02-18T13:48:38;3.25;;;1.92;;
59434;SDS011;45241;49.768;8.636;2023-02-18T13:51:13;2.92;;;1.85;;
59434;SDS011;45241;49.768;8.636;2023-02-18T13:53:42;3.77;;;2.13;;
59434;SDS011;45241;49.768;8.636;2023-02-18T13:58:43;5.30;;;2.40;;
59434;SDS011;45241;49.768;8.636;2023-02-18T14:01:36;3.70;;;1.85;;
59434;SDS011;45241;49.768;8.636;2023-02-18T14:06:34;5.20;;;2.33;;
59434;SDS011;45241;49.768;8.636;2023-02-18T14:11:38;3.25;;;2.13;;
59434;SDS011;45241;49.768;8.636;2023-02-18T14:19:37;4.25;;;2.17;;
59434;SDS011;45241;49.768;8.636;2023-02-18T14:25:01;3.60;;;2.08;;
59434;SDS011;45241;49.768;8.636;2023-02-18T14:27:30;7.68;;;2.47;;
59434;SDS011;45241;49.768;8.636;2023-02-18T14:30:00;5.38;;;2.53;;
59434;SDS011;45241;49.768;8.636;2023-02-18T14:32:28;4.07;;;2.40;;
59434;SDS011;45241;49.768;8.636;2023-02-18T14:43:31;3.63;;;2.30;;
59434;SDS011;45241;49.768;8.636;2023-02-18T14:49:13;2.63;;;2.00;;
59434;SDS011;45241;49.768;8.636;2023-02-18T14:51:47;3.80;;;2.05;;
59434;SDS011;45241;49.768;8.636;2023-02-18T14:54:15;4.07;;;2.10;;
59434;SDS011;45241;49.768;8.636;2023-02-18T14:56:51;4.47;;;1.83;;
59434;SDS011;45241;49.768;8.636;2023-02-18T14:59:20;3.95;;;1.85;;
59434;SDS011;45241;49.768;8.636;2023-02-18T15:01:47;3.63;;;1.77;;
59434;SDS011;45241;49.768;8.636;2023-02-18T15:04:13;3.72;;;1.70;;
59434;SDS011;45241;49.768;8.636;2023-02-18T15:06:39;2.05;;;1.58;;
59434;SDS011;45241;49.768;8.636;2023-02-18T15:09:13;2.88;;;1.70;;
59434;SDS011;45241;49.768;8.636;2023-02-18T15:11:54;4.70;;;1.90;;
59434;SDS011;45241;49.768;8.636;2023-02-18T15:14:26;3.30;;;1.50;;
59434;SDS011;45241;49.768;8.636;2023-02-18T15:16:55;3.13;;;1.67;;
59434;SDS011;45241;49.768;8.636;2023-02-18T15:19:23;5.07;;;1.52;;
59434;SDS011;45241;49.768;8.636;2023-02-18T15:21:52;3.05;;;1.40;;
59434;SDS011;45241;49.768;8.636;2023-02-18T15:24:36;2.58;;;1.42;;
59434;SDS011;45241;49.768;8.636;2023-02-18T15:29:36;3.28;;;1.10;;
59434;SDS011;45241;49.768;8.636;2023-02-18T15:32:16;2.70;;;1.00;;
59434;SDS011;45241;49.768;8.636;2023-02-18T15:34:50;2.90;;;1.10;;
59434;SDS011;45241;49.768;8.636;2023-02-18T15:37:16;1.75;;;0.82;;
59434;SDS011;45241;49.768;8.636;2023-02-18T15:39:42;1.98;;;1.20;;
59434;SDS011;45241;49.768;8.636;2023-02-18T15:44:44;3.17;;;1.30;;
59434;SDS011;45241;49.768;8.636;2023-02-18T15:47:12;3.42;;;1.60;;
59434;SDS011;45241;49.768;8.636;2023-02-18T15:49:38;3.25;;;1.30;;
59434;SDS011;45241;49.768;8.636;2023-02-18T15:52:11;3.38;;;1.63;;
59434;SDS011;45241;49.768;8.636;2023-02-18T15:54:38;4.28;;;2.15;;
59434;SDS011;45241;49.768;8.636;2023-02-18T15:57:08;2.22;;;1.80;;
59434;SDS011;45241;49.768;8.636;2023-02-18T15:59:44;4.55;;;1.70;;
59434;SDS011;45241;49.768;8.636;2023-02-18T16:02:18;5.07;;;2.00;;
59434;SDS011;45241;49.768;8.636;2023-02-18T16:04:47;2.63;;;1.50;;
59434;SDS011;45241;49.768;8.636;2023-02-18T16:07:20;3.90;;;1.85;;
59434;SDS011;45241;49.768;8.636;2023-02-18T16:09:48;2.10;;;1.73;;
59434;SDS011;45241;49.768;8.636;2023-02-18T16:12:27;2.80;;;1.63;;
59434;SDS011;45241;49.768;8.636;2023-02-18T16:14:55;2.55;;;1.70;;
59434;SDS011;45241;49.768;8.636;2023-02-18T16:17:24;3.10;;;1.88;;
59434;SDS011;45241;49.768;8.636;2023-02-18T16:19:56;4.43;;;1.85;;
59434;SDS011;45241;49.768;8.636;2023-02-18T16:22:34;4.70;;;1.75;;
59434;SDS011;45241;49.768;8.636;2023-02-18T16:25:06;1.73;;;1.60;;
59434;SDS011;45241;49.768;8.636;2023-02-18T16:30:23;4.25;;;1.92;;
59434;SDS011;45241;49.768;8.636;2023-02-18T16:32:51;3.65;;;1.80;;
59434;SDS011;45241;49.768;8.636;2023-02-18T16:35:16;3.35;;;1.95;;
59434;SDS011;45241;49.768;8.636;2023-02-18T16:37:43;4.03;;;1.88;;
59434;SDS011;45241;49.768;8.636;2023-02-18T16:42:52;3.17;;;1.90;;
59434;SDS011;45241;49.768;8.636;2023-02-18T16:45:19;2.38;;;2.17;;
59434;SDS011;45241;49.768;8.636;2023-02-18T16:47:48;3.35;;;2.20;;
59434;SDS011;45241;49.768;8.636;2023-02-18T16:50:18;2.67;;;2.40;;
59434;SDS011;45241;49.768;8.636;2023-02-18T16:52:45;3.25;;;2.53;;
59434;SDS011;45241;49.768;8.636;2023-02-18T16:55:19;4.43;;;2.70;;
59434;SDS011;45241;49.768;8.636;2023-02-18T16:57:46;6.65;;;3.30;;
59434;SDS011;45241;49.768;8.636;2023-02-18T17:00:12;3.88;;;2.90;;
59434;SDS011;45241;49.768;8.636;2023-02-18T17:02:39;3.75;;;3.00;;
59434;SDS011;45241;49.768;8.636;2023-02-18T17:05:06;3.53;;;2.80;;
59434;SDS011;45241;49.768;8.636;2023-02-18T17:07:31;5.07;;;3.55;;